createdAt,value
2022-11-20T00:01:37.883Z,1.65
2022-11-20T00:04:06.034Z,1.60
2022-11-20T00:06:34.533Z,1.56
2022-11-20T00:09:02.895Z,1.49
2022-11-20T00:11:32.413Z,1.45
2022-11-20T00:14:03.180Z,1.39
2022-11-20T00:16:33.628Z,1.40
2022-11-20T00:19:02.630Z,1.32
2022-11-20T00:21:31.562Z,1.30
2022-11-20T00:24:00.501Z,1.34
2022-11-20T00:26:30.393Z,1.23
2022-11-20T00:29:01.310Z,1.20
2022-11-20T00:31:30.672Z,1.17
2022-11-20T00:33:58.790Z,1.22
2022-11-20T00:36:29.415Z,1.19
2022-11-20T00:38:59.619Z,1.17
2022-11-20T00:41:30.140Z,1.25
2022-11-20T00:43:59.134Z,1.36
2022-11-20T00:46:29.027Z,1.42
2022-11-20T00:48:58.387Z,1.48
2022-11-20T00:51:28.929Z,1.43
2022-11-20T00:53:58.697Z,1.50
2022-11-20T00:56:27.319Z,1.52
2022-11-20T00:58:55.527Z,1.50
2022-11-20T01:01:27.262Z,1.47
2022-11-20T01:03:58.007Z,1.42
2022-11-20T01:06:33.689Z,1.36
2022-11-20T01:09:06.282Z,1.24
2022-11-20T01:11:37.926Z,1.23
2022-11-20T01:14:09.347Z,1.25
2022-11-20T01:16:46.954Z,1.06
2022-11-20T01:19:22.538Z,1.13
2022-11-20T01:21:53.949Z,1.14
2022-11-20T01:24:23.077Z,1.24
2022-11-20T01:26:54.829Z,1.23
2022-11-20T01:29:25.238Z,1.18
2022-11-20T01:31:54.202Z,1.21
2022-11-20T01:34:23.649Z,1.18
2022-11-20T01:36:54.251Z,1.02
2022-11-20T01:39:25.374Z,0.99
2022-11-20T01:42:14.321Z,1.12
2022-11-20T01:44:52.909Z,1.40
2022-11-20T01:47:38.338Z,1.50
2022-11-20T01:50:06.652Z,1.46
2022-11-20T01:52:44.177Z,1.51
2022-11-20T01:55:20.418Z,1.35
2022-11-20T01:57:49.902Z,1.15
2022-11-20T02:00:20.168Z,1.43
2022-11-20T02:02:58.517Z,1.48
2022-11-20T02:05:37.984Z,1.51
2022-11-20T02:08:07.931Z,1.40
2022-11-20T02:10:36.479Z,1.23
2022-11-20T02:13:23.967Z,1.44
2022-11-20T02:15:52.746Z,1.52
2022-11-20T02:18:22.377Z,1.59
2022-11-20T02:20:58.177Z,1.50
2022-11-20T02:23:32.036Z,1.24
2022-11-20T02:26:04.616Z,1.14
2022-11-20T02:28:33.304Z,1.10
2022-11-20T02:31:02.444Z,1.17
2022-11-20T02:33:31.062Z,1.07
2022-11-20T02:35:59.217Z,1.19
2022-11-20T02:38:27.553Z,1.39
2022-11-20T02:40:56.090Z,1.47
2022-11-20T02:43:24.457Z,1.55
2022-11-20T02:45:52.462Z,1.62
2022-11-20T02:48:20.655Z,1.46
2022-11-20T02:50:48.592Z,1.51
2022-11-20T02:53:17.069Z,1.26
2022-11-20T02:55:45.145Z,1.40
2022-11-20T02:58:13.122Z,1.60
2022-11-20T03:00:41.591Z,1.41
2022-11-20T03:03:09.614Z,1.22
2022-11-20T03:05:38.055Z,1.20
2022-11-20T03:08:06.369Z,1.12
2022-11-20T03:10:34.600Z,1.36
2022-11-20T03:13:02.639Z,1.44
2022-11-20T03:15:32.153Z,1.08
2022-11-20T03:18:00.260Z,1.12
2022-11-20T03:20:28.360Z,1.01
2022-11-20T03:22:56.630Z,1.17
2022-11-20T03:25:24.774Z,1.42
2022-11-20T03:27:53.216Z,1.03
2022-11-20T03:30:23.210Z,1.48
2022-11-20T03:32:54.959Z,1.48
2022-11-20T03:35:23.075Z,1.29
2022-11-20T03:37:51.244Z,1.35
2022-11-20T03:40:19.569Z,1.44
2022-11-20T03:42:47.637Z,1.65
2022-11-20T03:45:19.349Z,1.68
2022-11-20T03:47:47.783Z,1.76
2022-11-20T03:50:16.210Z,1.64
2022-11-20T03:52:44.595Z,1.63
2022-11-20T03:55:12.594Z,1.77
2022-11-20T03:57:40.601Z,1.71
2022-11-20T04:00:09.318Z,1.51
2022-11-20T04:02:37.355Z,1.53
2022-11-20T04:05:05.631Z,1.52
2022-11-20T04:07:34.978Z,1.61
2022-11-20T04:10:03.522Z,1.95
2022-11-20T04:12:33.465Z,1.89
2022-11-20T04:15:01.826Z,1.82
2022-11-20T04:17:32.205Z,1.84
2022-11-20T04:20:00.272Z,1.98
2022-11-20T04:22:28.367Z,1.85
2022-11-20T04:24:56.848Z,1.60
2022-11-20T04:27:24.840Z,1.49
2022-11-20T04:29:52.946Z,1.47
2022-11-20T04:32:21.058Z,1.43
2022-11-20T04:34:49.108Z,1.36
2022-11-20T04:37:17.161Z,1.35
2022-11-20T04:39:45.181Z,1.45
2022-11-20T04:42:31.680Z,1.64
2022-11-20T04:44:59.671Z,1.62
2022-11-20T04:47:27.846Z,1.70
2022-11-20T04:49:55.934Z,1.68
2022-11-20T04:52:24.147Z,1.84
2022-11-20T04:54:53.979Z,1.82
2022-11-20T04:57:22.122Z,1.53
2022-11-20T04:59:50.297Z,1.37
2022-11-20T05:02:18.883Z,1.62
2022-11-20T05:04:46.915Z,1.81
2022-11-20T05:07:15.263Z,1.80
2022-11-20T05:09:43.309Z,1.85
2022-11-20T05:12:12.020Z,1.85
2022-11-20T05:14:40.216Z,1.78
2022-11-20T05:17:11.530Z,1.67
2022-11-20T05:19:39.546Z,1.81
2022-11-20T05:22:07.641Z,1.65
2022-11-20T05:24:35.891Z,1.34
2022-11-20T05:27:04.075Z,1.37
2022-11-20T05:29:32.775Z,1.69
2022-11-20T05:32:00.864Z,1.57
2022-11-20T05:34:29.077Z,1.49
2022-11-20T05:36:57.189Z,1.39
2022-11-20T05:39:30.163Z,1.47
2022-11-20T05:42:18.131Z,1.90
2022-11-20T05:44:46.331Z,1.76
2022-11-20T05:47:16.645Z,1.66
2022-11-20T05:49:47.631Z,1.72
2022-11-20T05:52:16.100Z,1.71
2022-11-20T05:54:45.607Z,1.48
2022-11-20T05:57:14.233Z,1.46
2022-11-20T05:59:43.073Z,1.38
2022-11-20T06:02:14.896Z,1.17
2022-11-20T06:04:46.712Z,1.04
2022-11-20T06:07:15.204Z,1.03
2022-11-20T06:09:43.843Z,0.89
2022-11-20T06:12:12.819Z,0.84
2022-11-20T06:14:43.062Z,0.82
2022-11-20T06:17:12.871Z,0.86
2022-11-20T06:19:41.089Z,0.78
2022-11-20T06:22:09.302Z,0.87
2022-11-20T06:24:37.833Z,0.90
2022-11-20T06:27:05.895Z,0.85
2022-11-20T06:29:35.637Z,0.88
2022-11-20T06:32:05.034Z,0.90
2022-11-20T06:34:33.463Z,1.08
2022-11-20T06:37:01.658Z,1.06
2022-11-20T06:39:30.575Z,1.15
2022-11-20T06:41:59.378Z,1.13
2022-11-20T06:44:27.866Z,0.99
2022-11-20T06:46:55.890Z,1.02
2022-11-20T06:49:24.429Z,1.02
2022-11-20T06:51:53.098Z,0.91
2022-11-20T06:54:21.249Z,0.98
2022-11-20T06:56:50.057Z,1.05
2022-11-20T06:59:17.969Z,1.10
2022-11-20T07:01:46.492Z,1.07
2022-11-20T07:04:16.474Z,1.11
2022-11-20T07:06:45.609Z,1.24
2022-11-20T07:09:14.429Z,1.02
2022-11-20T07:11:42.991Z,1.00
2022-11-20T07:14:11.560Z,1.18
2022-11-20T07:16:39.842Z,1.26
2022-11-20T07:19:08.996Z,1.34
2022-11-20T07:21:37.309Z,1.25
2022-11-20T07:24:05.875Z,1.31
2022-11-20T07:26:34.712Z,1.24
2022-11-20T07:29:03.814Z,1.30
2022-11-20T07:31:32.967Z,1.37
2022-11-20T07:34:01.368Z,1.32
2022-11-20T07:36:30.902Z,1.35
2022-11-20T07:38:59.258Z,1.42
2022-11-20T07:42:00.099Z,1.39
2022-11-20T07:44:34.890Z,1.36
2022-11-20T07:47:07.639Z,1.35
2022-11-20T07:49:35.810Z,1.51
2022-11-20T07:52:05.270Z,1.73
2022-11-20T07:54:34.831Z,1.69
2022-11-20T07:57:03.917Z,1.66
2022-11-20T07:59:32.815Z,1.63
2022-11-20T08:02:01.803Z,1.81
2022-11-20T08:04:34.424Z,1.56
2022-11-20T08:07:02.604Z,1.55
2022-11-20T08:09:30.746Z,1.55
2022-11-20T08:12:31.775Z,1.80
2022-11-20T08:15:07.200Z,2.15
2022-11-20T08:17:38.947Z,2.10
2022-11-20T08:20:07.581Z,2.25
2022-11-20T08:22:36.074Z,2.37
2022-11-20T08:25:07.511Z,2.35
2022-11-20T08:27:37.782Z,2.31
2022-11-20T08:30:10.043Z,2.68
2022-11-20T08:32:39.070Z,2.65
2022-11-20T08:35:08.599Z,2.90
2022-11-20T08:37:40.144Z,3.05
2022-11-20T08:40:16.943Z,3.07
2022-11-20T08:42:51.821Z,3.05
2022-11-20T08:45:20.702Z,2.80
2022-11-20T08:47:49.157Z,3.02
2022-11-20T08:50:18.260Z,2.90
2022-11-20T08:52:46.760Z,2.60
2022-11-20T08:55:16.074Z,2.64
2022-11-20T08:57:49.535Z,2.56
2022-11-20T09:00:19.567Z,2.78
2022-11-20T09:02:48.193Z,2.91
2022-11-20T09:05:20.162Z,2.82
2022-11-20T09:07:48.931Z,2.89
2022-11-20T09:10:23.951Z,2.90
2022-11-20T09:12:55.096Z,2.83
2022-11-20T09:15:25.759Z,3.31
2022-11-20T09:18:01.010Z,3.03
2022-11-20T09:20:31.355Z,3.29
2022-11-20T09:22:59.787Z,3.84
2022-11-20T09:25:29.008Z,4.02
2022-11-20T09:28:00.377Z,3.91
2022-11-20T09:30:29.599Z,4.19
2022-11-20T09:32:57.899Z,3.93
2022-11-20T09:35:26.724Z,3.88
2022-11-20T09:37:59.544Z,3.59
2022-11-20T09:40:30.635Z,4.07
2022-11-20T09:43:02.868Z,4.11
2022-11-20T09:46:02.333Z,3.87
2022-11-20T09:48:55.166Z,3.69
2022-11-20T09:51:48.808Z,3.74
2022-11-20T09:54:23.540Z,3.96
2022-11-20T09:57:01.421Z,3.70
2022-11-20T09:59:44.028Z,3.99
2022-11-20T10:02:25.535Z,3.77
2022-11-20T10:04:57.511Z,3.30
2022-11-20T10:07:56.713Z,3.72
2022-11-20T10:10:54.994Z,3.78
2022-11-20T10:13:36.525Z,3.98
2022-11-20T10:16:41.271Z,3.92
2022-11-20T10:19:34.244Z,4.16
2022-11-20T10:22:17.128Z,4.37
2022-11-20T10:25:02.551Z,4.13
2022-11-20T10:28:08.250Z,3.68
2022-11-20T10:30:42.255Z,3.46
2022-11-20T10:33:18.816Z,3.61
2022-11-20T10:36:00.640Z,3.27
2022-11-20T10:38:50.960Z,3.33
2022-11-20T10:41:35.935Z,3.86
2022-11-20T10:44:15.892Z,4.12
2022-11-20T10:46:48.471Z,4.08
2022-11-20T10:49:20.421Z,3.96
2022-11-20T10:52:10.627Z,3.85
2022-11-20T10:54:39.216Z,3.92
2022-11-20T10:57:36.746Z,3.99
2022-11-20T11:00:10.453Z,3.96
2022-11-20T11:02:49.116Z,4.21
2022-11-20T11:05:21.253Z,3.87
2022-11-20T11:07:54.684Z,3.62
2022-11-20T11:10:51.866Z,3.59
2022-11-20T11:13:29.487Z,3.79
2022-11-20T11:15:59.755Z,3.72
2022-11-20T11:18:31.396Z,4.04
2022-11-20T11:21:03.699Z,4.27
2022-11-20T11:23:44.050Z,4.29
2022-11-20T11:26:27.096Z,4.10
2022-11-20T11:29:04.568Z,4.18
2022-11-20T11:31:36.284Z,3.73
2022-11-20T11:34:12.852Z,3.64
2022-11-20T11:36:42.602Z,3.80
2022-11-20T11:39:17.587Z,3.80
2022-11-20T11:41:46.921Z,3.70
2022-11-20T11:44:38.994Z,3.89
2022-11-20T11:47:21.002Z,3.62
2022-11-20T11:49:49.825Z,3.70
2022-11-20T11:52:22.500Z,3.57
2022-11-20T11:54:56.454Z,3.67
2022-11-20T11:57:38.219Z,3.64
2022-11-20T12:00:18.333Z,3.67
2022-11-20T12:02:46.518Z,3.51
2022-11-20T12:05:19.036Z,3.50
2022-11-20T12:07:59.917Z,3.65
2022-11-20T12:10:28.464Z,3.56
2022-11-20T12:13:05.276Z,3.76
2022-11-20T12:15:35.823Z,3.78
2022-11-20T12:18:15.586Z,3.79
2022-11-20T12:20:55.667Z,3.99
2022-11-20T12:23:47.594Z,4.20
2022-11-20T12:26:42.246Z,4.03
2022-11-20T12:29:14.968Z,3.79
2022-11-20T12:31:51.583Z,3.78
2022-11-20T12:34:46.483Z,4.12
2022-11-20T12:37:49.455Z,4.43
2022-11-20T12:40:39.253Z,4.25
2022-11-20T12:43:43.950Z,4.22
2022-11-20T12:46:50.522Z,4.23
2022-11-20T12:49:44.017Z,4.43
2022-11-20T12:52:44.799Z,4.49
2022-11-20T12:55:33.855Z,4.31
2022-11-20T12:58:03.465Z,4.52
2022-11-20T13:00:36.236Z,4.69
2022-11-20T13:03:38.965Z,4.62
2022-11-20T13:06:17.144Z,4.73
2022-11-20T13:08:57.159Z,4.70
2022-11-20T13:11:48.760Z,4.71
2022-11-20T13:14:23.679Z,4.90
2022-11-20T13:17:05.932Z,4.99
2022-11-20T13:19:42.738Z,5.01
2022-11-20T13:22:44.232Z,5.04
2022-11-20T13:25:31.693Z,4.97
2022-11-20T13:28:07.503Z,5.17
2022-11-20T13:30:38.399Z,5.42
2022-11-20T13:33:28.604Z,5.48
2022-11-20T13:36:04.520Z,5.44
2022-11-20T13:38:49.765Z,5.49
2022-11-20T13:41:39.354Z,5.58
2022-11-20T13:44:37.335Z,5.55
2022-11-20T13:47:22.168Z,5.44
2022-11-20T13:49:53.055Z,5.43
2022-11-20T13:52:31.360Z,5.42
2022-11-20T13:55:29.640Z,5.51
2022-11-20T13:58:17.778Z,5.52
2022-11-20T14:00:53.086Z,5.40
2022-11-20T14:04:04.100Z,5.28
2022-11-20T14:06:44.770Z,5.22
2022-11-20T14:09:34.078Z,5.19
2022-11-20T14:12:15.634Z,5.17
2022-11-20T14:14:55.582Z,5.18
2022-11-20T14:17:30.110Z,5.18
2022-11-20T14:20:03.884Z,5.02
2022-11-20T14:22:33.144Z,5.00
2022-11-20T14:25:15.491Z,4.94
2022-11-20T14:27:52.097Z,5.01
2022-11-20T14:30:50.004Z,4.95
2022-11-20T14:33:20.501Z,4.90
2022-11-20T14:35:51.351Z,4.84
2022-11-20T14:38:32.737Z,4.81
2022-11-20T14:41:09.405Z,4.76
2022-11-20T14:43:39.838Z,4.68
2022-11-20T14:46:11.538Z,4.62
2022-11-20T14:48:51.676Z,4.54
2022-11-20T14:51:31.010Z,4.48
2022-11-20T14:54:21.240Z,4.40
2022-11-20T14:57:03.110Z,4.36
2022-11-20T14:59:34.657Z,4.30
2022-11-20T15:02:16.560Z,4.23
2022-11-20T15:05:04.449Z,4.28
2022-11-20T15:07:36.432Z,4.25
2022-11-20T15:10:09.910Z,4.23
2022-11-20T15:12:47.372Z,4.21
2022-11-20T15:15:21.883Z,4.06
2022-11-20T15:17:52.180Z,3.84
2022-11-20T15:20:25.608Z,3.80
2022-11-20T15:22:55.940Z,3.72
2022-11-20T15:25:26.501Z,3.69
2022-11-20T15:27:58.492Z,3.71
2022-11-20T15:30:27.178Z,3.64
2022-11-20T15:32:55.640Z,3.61
2022-11-20T15:35:24.272Z,3.60
2022-11-20T15:38:11.005Z,3.52
2022-11-20T15:40:39.362Z,3.40
2022-11-20T15:43:13.318Z,3.38
2022-11-20T15:45:52.911Z,3.31
2022-11-20T15:48:23.240Z,3.25
2022-11-20T15:51:10.987Z,3.23
2022-11-20T15:53:41.218Z,3.30
2022-11-20T15:56:14.032Z,3.32
2022-11-20T15:58:42.706Z,3.30
2022-11-20T16:01:17.217Z,3.17
2022-11-20T16:03:48.131Z,3.09
2022-11-20T16:06:17.397Z,3.09
2022-11-20T16:08:45.611Z,3.08
2022-11-20T16:11:16.279Z,3.10
2022-11-20T16:14:02.936Z,3.09
2022-11-20T16:16:36.509Z,3.20
2022-11-20T16:19:07.207Z,3.26
2022-11-20T16:21:35.880Z,3.28
2022-11-20T16:24:06.530Z,3.41
2022-11-20T16:26:34.986Z,3.47
2022-11-20T16:29:05.069Z,3.49
2022-11-20T16:31:34.339Z,3.56
2022-11-20T16:34:12.024Z,3.63
2022-11-20T16:36:43.325Z,3.67
2022-11-20T16:39:16.683Z,3.67
2022-11-20T16:41:49.276Z,3.67
2022-11-20T16:44:19.105Z,3.58
2022-11-20T16:46:47.098Z,3.60
2022-11-20T16:49:15.476Z,3.63
2022-11-20T16:51:43.764Z,3.63
2022-11-20T16:54:16.423Z,3.33
2022-11-20T16:56:48.472Z,3.11
2022-11-20T16:59:18.194Z,3.11
2022-11-20T17:01:46.669Z,3.15
2022-11-20T17:04:14.977Z,3.23
2022-11-20T17:06:44.428Z,3.33
2022-11-20T17:09:13.820Z,3.43
2022-11-20T17:11:42.014Z,3.45
2022-11-20T17:14:11.919Z,3.37
2022-11-20T17:16:40.675Z,3.39
2022-11-20T17:19:09.958Z,3.43
2022-11-20T17:21:39.763Z,3.41
2022-11-20T17:24:10.714Z,3.41
2022-11-20T17:26:40.714Z,3.40
2022-11-20T17:29:23.931Z,3.37
2022-11-20T17:31:55.114Z,3.23
2022-11-20T17:34:23.685Z,3.23
2022-11-20T17:36:53.046Z,3.10
2022-11-20T17:39:22.504Z,2.93
2022-11-20T17:42:10.766Z,2.87
2022-11-20T17:44:59.495Z,2.90
2022-11-20T17:47:27.616Z,2.79
2022-11-20T17:49:56.289Z,2.77
2022-11-20T17:52:26.247Z,2.87
2022-11-20T17:54:57.120Z,2.84
2022-11-20T17:57:43.860Z,2.91
2022-11-20T18:00:13.293Z,2.96
2022-11-20T18:02:41.935Z,2.85
2022-11-20T18:05:11.369Z,2.77
2022-11-20T18:07:41.895Z,2.77
2022-11-20T18:10:10.511Z,2.92
2022-11-20T18:12:39.124Z,2.58
2022-11-20T18:15:09.055Z,2.37
2022-11-20T18:17:37.457Z,2.46
2022-11-20T18:20:27.879Z,2.51
2022-11-20T18:22:54.845Z,2.56
2022-11-20T18:25:25.078Z,2.56
2022-11-20T18:27:53.421Z,2.58
2022-11-20T18:30:21.746Z,2.64
2022-11-20T18:32:50.499Z,2.56
2022-11-20T18:35:21.337Z,2.49
2022-11-20T18:37:49.593Z,2.54
2022-11-20T18:40:17.960Z,2.59
2022-11-20T18:43:05.457Z,2.60
2022-11-20T18:45:33.791Z,2.63
2022-11-20T18:48:02.322Z,2.63
2022-11-20T18:50:30.844Z,2.60
2022-11-20T18:52:59.843Z,2.51
2022-11-20T18:55:29.602Z,2.49
2022-11-20T18:57:58.550Z,2.47
2022-11-20T19:00:26.931Z,2.45
2022-11-20T19:02:55.455Z,2.53
2022-11-20T19:05:24.273Z,2.63
2022-11-20T19:07:52.538Z,2.72
2022-11-20T19:10:24.907Z,2.68
2022-11-20T19:12:53.872Z,2.58
2022-11-20T19:15:22.673Z,2.51
2022-11-20T19:17:53.417Z,2.54
2022-11-20T19:20:21.804Z,2.55
2022-11-20T19:22:51.149Z,2.41
2022-11-20T19:25:20.058Z,2.34
2022-11-20T19:27:48.273Z,2.27
2022-11-20T19:30:18.435Z,2.14
2022-11-20T19:32:46.683Z,2.02
2022-11-20T19:35:15.167Z,1.98
2022-11-20T19:37:44.812Z,1.87
2022-11-20T19:40:14.511Z,1.89
2022-11-20T19:42:43.082Z,1.87
2022-11-20T19:45:12.193Z,1.88
2022-11-20T19:50:29.384Z,1.87
2022-11-20T19:52:59.037Z,1.92
2022-11-20T19:55:27.595Z,1.97
2022-11-20T19:57:56.715Z,2.06
2022-11-20T20:00:32.207Z,2.12
2022-11-20T20:03:04.512Z,2.14
2022-11-20T20:05:34.822Z,2.04
2022-11-20T20:08:03.290Z,2.10
2022-11-20T20:10:32.615Z,2.21
2022-11-20T20:13:05.751Z,2.27
2022-11-20T20:15:35.661Z,2.27
2022-11-20T20:18:04.506Z,2.31
2022-11-20T20:20:33.242Z,2.27
2022-11-20T20:23:03.284Z,2.18
2022-11-20T20:25:33.559Z,2.06
2022-11-20T20:28:02.426Z,1.94
2022-11-20T20:30:31.631Z,1.80
2022-11-20T20:32:59.498Z,1.69
2022-11-20T20:35:28.618Z,1.54
2022-11-20T20:37:57.460Z,1.39
2022-11-20T20:40:26.428Z,1.33
2022-11-20T20:42:55.113Z,1.23
2022-11-20T20:45:23.911Z,1.12
2022-11-20T20:47:52.850Z,1.01
2022-11-20T20:50:23.616Z,0.85
2022-11-20T20:52:52.269Z,0.82
2022-11-20T20:55:20.598Z,0.75
2022-11-20T20:57:48.674Z,0.76
2022-11-20T21:00:17.802Z,0.72
2022-11-20T21:02:46.417Z,0.67
2022-11-20T21:05:14.970Z,0.61
2022-11-20T21:08:02.039Z,0.58
2022-11-20T21:10:31.428Z,0.54
2022-11-20T21:12:59.864Z,0.50
2022-11-20T21:15:28.794Z,0.41
2022-11-20T21:17:59.104Z,0.34
2022-11-20T21:20:45.975Z,0.31
2022-11-20T21:23:14.125Z,0.25
2022-11-20T21:25:43.673Z,0.22
2022-11-20T21:28:16.798Z,0.14
2022-11-20T21:30:47.450Z,0.05
2022-11-20T21:33:15.972Z,0.03
2022-11-20T21:35:43.823Z,-0.00
2022-11-20T21:38:11.841Z,-0.05
2022-11-20T21:40:39.588Z,-0.06
2022-11-20T21:43:07.360Z,-0.07
2022-11-20T21:45:35.123Z,-0.17
2022-11-20T21:48:03.560Z,-0.21
2022-11-20T21:50:31.654Z,-0.20
2022-11-20T21:52:59.553Z,-0.24
2022-11-20T21:55:27.401Z,-0.31
2022-11-20T21:57:55.215Z,-0.36
2022-11-20T22:00:23.329Z,-0.31
2022-11-20T22:02:51.264Z,-0.28
2022-11-20T22:05:19.112Z,-0.33
2022-11-20T22:07:47.051Z,-0.35
2022-11-20T22:10:18.455Z,-0.36
2022-11-20T22:12:46.758Z,-0.41
2022-11-20T22:15:20.398Z,-0.51
2022-11-20T22:18:13.886Z,-0.66
2022-11-20T22:20:42.048Z,-0.73
2022-11-20T22:23:12.262Z,-0.70
2022-11-20T22:25:40.225Z,-0.65
2022-11-20T22:28:08.179Z,-0.61
2022-11-20T22:30:36.081Z,-0.70
2022-11-20T22:33:05.772Z,-0.73
2022-11-20T22:35:36.815Z,-0.75
2022-11-20T22:38:04.771Z,-0.77
2022-11-20T22:40:32.972Z,-0.73
2022-11-20T22:43:00.766Z,-0.75
2022-11-20T22:45:28.505Z,-0.69
2022-11-20T22:47:56.345Z,-0.71
2022-11-20T22:50:25.493Z,-0.77
2022-11-20T22:52:55.437Z,-0.72
2022-11-20T22:55:23.512Z,-0.67
2022-11-20T22:57:51.366Z,-0.71
2022-11-20T23:00:19.675Z,-0.81
2022-11-20T23:02:47.594Z,-0.90
2022-11-20T23:05:15.414Z,-0.87
2022-11-20T23:07:44.045Z,-0.84
2022-11-20T23:10:13.042Z,-0.87
2022-11-20T23:12:41.939Z,-0.92
2022-11-20T23:15:10.345Z,-0.98
2022-11-20T23:17:38.261Z,-1.01
2022-11-20T23:20:06.916Z,-1.06
2022-11-20T23:22:34.917Z,-1.11
2022-11-20T23:25:03.206Z,-1.16
2022-11-20T23:27:31.056Z,-1.29
2022-11-20T23:29:59.174Z,-1.30
2022-11-20T23:32:27.039Z,-1.30
2022-11-20T23:34:54.833Z,-1.33
2022-11-20T23:37:22.569Z,-1.41
2022-11-20T23:39:50.381Z,-1.42
2022-11-20T23:42:18.385Z,-1.47
2022-11-20T23:44:46.433Z,-1.51
2022-11-20T23:47:14.429Z,-1.52
2022-11-20T23:49:42.324Z,-1.50
2022-11-20T23:52:10.577Z,-1.48
2022-11-20T23:54:38.479Z,-1.53
2022-11-20T23:57:06.243Z,-1.60
2022-11-20T23:59:34.075Z,-1.66
